sensor_id;sensor_type;location;lat;lon;timestamp;P1;durP1;ratioP1;P2;durP2;ratioP2
37895;SDS011;23733;53.254;10.430;2022-12-18T00:02:22;21.63;;;11.63;;
37895;SDS011;23733;53.254;10.430;2022-12-18T00:04:48;23.70;;;11.60;;
37895;SDS011;23733;53.254;10.430;2022-12-18T00:07:15;22.07;;;10.93;;
37895;SDS011;23733;53.254;10.430;2022-12-18T00:09:41;24.67;;;11.77;;
37895;SDS011;23733;53.254;10.430;2022-12-18T00:12:07;22.57;;;11.07;;
37895;SDS011;23733;53.254;10.430;2022-12-18T00:14:34;24.97;;;12.43;;
37895;SDS011;23733;53.254;10.430;2022-12-18T00:17:00;21.30;;;11.43;;
37895;SDS011;23733;53.254;10.430;2022-12-18T00:19:26;23.47;;;11.23;;
37895;SDS011;23733;53.254;10.430;2022-12-18T00:21:53;24.10;;;11.80;;
37895;SDS011;23733;53.254;10.430;2022-12-18T00:24:19;21.03;;;11.50;;
37895;SDS011;23733;53.254;10.430;2022-12-18T00:26:45;24.87;;;11.73;;
37895;SDS011;23733;53.254;10.430;2022-12-18T00:29:12;20.73;;;12.32;;
37895;SDS011;23733;53.254;10.430;2022-12-18T00:31:39;22.90;;;12.90;;
37895;SDS011;23733;53.254;10.430;2022-12-18T00:34:06;23.37;;;12.90;;
37895;SDS011;23733;53.254;10.430;2022-12-18T00:36:33;23.30;;;12.30;;
37895;SDS011;23733;53.254;10.430;2022-12-18T00:39:00;19.23;;;11.13;;
37895;SDS011;23733;53.254;10.430;2022-12-18T00:41:27;23.20;;;11.03;;
37895;SDS011;23733;53.254;10.430;2022-12-18T00:44:13;22.27;;;11.33;;
37895;SDS011;23733;53.254;10.430;2022-12-18T00:46:40;22.97;;;11.97;;
37895;SDS011;23733;53.254;10.430;2022-12-18T00:49:07;21.97;;;12.13;;
37895;SDS011;23733;53.254;10.430;2022-12-18T00:51:33;20.30;;;10.97;;
37895;SDS011;23733;53.254;10.430;2022-12-18T00:53:59;22.13;;;11.17;;
37895;SDS011;23733;53.254;10.430;2022-12-18T00:56:26;20.53;;;11.43;;
37895;SDS011;23733;53.254;10.430;2022-12-18T00:58:52;20.37;;;10.87;;
37895;SDS011;23733;53.254;10.430;2022-12-18T01:01:19;21.23;;;10.43;;
37895;SDS011;23733;53.254;10.430;2022-12-18T01:03:45;22.17;;;12.30;;
37895;SDS011;23733;53.254;10.430;2022-12-18T01:06:12;23.60;;;11.07;;
37895;SDS011;23733;53.254;10.430;2022-12-18T01:08:39;26.90;;;12.00;;
37895;SDS011;23733;53.254;10.430;2022-12-18T01:11:09;24.23;;;13.17;;
37895;SDS011;23733;53.254;10.430;2022-12-18T01:13:35;22.43;;;11.67;;
37895;SDS011;23733;53.254;10.430;2022-12-18T01:16:02;25.20;;;12.57;;
37895;SDS011;23733;53.254;10.430;2022-12-18T01:18:28;26.43;;;12.37;;
37895;SDS011;23733;53.254;10.430;2022-12-18T01:20:54;24.47;;;12.13;;
37895;SDS011;23733;53.254;10.430;2022-12-18T01:23:21;24.43;;;12.37;;
37895;SDS011;23733;53.254;10.430;2022-12-18T01:25:47;22.67;;;11.93;;
37895;SDS011;23733;53.254;10.430;2022-12-18T01:28:13;23.75;;;13.88;;
37895;SDS011;23733;53.254;10.430;2022-12-18T01:30:40;27.77;;;12.77;;
37895;SDS011;23733;53.254;10.430;2022-12-18T01:33:06;22.90;;;12.83;;
37895;SDS011;23733;53.254;10.430;2022-12-18T01:35:32;29.20;;;15.88;;
37895;SDS011;23733;53.254;10.430;2022-12-18T01:38:02;31.53;;;14.27;;
37895;SDS011;23733;53.254;10.430;2022-12-18T01:40:28;28.33;;;13.33;;
37895;SDS011;23733;53.254;10.430;2022-12-18T01:42:54;27.60;;;13.63;;
37895;SDS011;23733;53.254;10.430;2022-12-18T01:45:26;24.10;;;14.18;;
37895;SDS011;23733;53.254;10.430;2022-12-18T01:47:56;29.57;;;14.93;;
37895;SDS011;23733;53.254;10.430;2022-12-18T01:50:36;27.30;;;13.43;;
37895;SDS011;23733;53.254;10.430;2022-12-18T01:53:07;24.07;;;12.17;;
37895;SDS011;23733;53.254;10.430;2022-12-18T01:55:38;28.95;;;14.13;;
37895;SDS011;23733;53.254;10.430;2022-12-18T01:58:05;27.10;;;14.10;;
37895;SDS011;23733;53.254;10.430;2022-12-18T02:00:32;25.40;;;14.03;;
37895;SDS011;23733;53.254;10.430;2022-12-18T02:02:58;28.60;;;14.37;;
37895;SDS011;23733;53.254;10.430;2022-12-18T02:06:07;22.60;;;12.53;;
37895;SDS011;23733;53.254;10.430;2022-12-18T02:08:22;23.70;;;12.67;;
37895;SDS011;23733;53.254;10.430;2022-12-18T02:11:14;25.70;;;13.03;;
37895;SDS011;23733;53.254;10.430;2022-12-18T02:13:40;28.30;;;12.77;;
37895;SDS011;23733;53.254;10.430;2022-12-18T02:16:13;23.30;;;12.50;;
37895;SDS011;23733;53.254;10.430;2022-12-18T02:18:45;27.00;;;12.90;;
37895;SDS011;23733;53.254;10.430;2022-12-18T02:21:16;24.47;;;11.80;;
37895;SDS011;23733;53.254;10.430;2022-12-18T02:31:19;25.00;;;12.00;;
37895;SDS011;23733;53.254;10.430;2022-12-18T02:33:47;26.97;;;12.93;;
37895;SDS011;23733;53.254;10.430;2022-12-18T02:36:15;25.87;;;12.93;;
37895;SDS011;23733;53.254;10.430;2022-12-18T02:38:42;24.30;;;12.03;;
37895;SDS011;23733;53.254;10.430;2022-12-18T02:41:09;26.10;;;12.30;;
37895;SDS011;23733;53.254;10.430;2022-12-18T02:43:36;27.47;;;14.17;;
37895;SDS011;23733;53.254;10.430;2022-12-18T02:46:20;25.93;;;13.93;;
37895;SDS011;23733;53.254;10.430;2022-12-18T02:48:48;29.70;;;13.47;;
37895;SDS011;23733;53.254;10.430;2022-12-18T02:51:18;25.53;;;14.03;;
37895;SDS011;23733;53.254;10.430;2022-12-18T02:53:51;26.37;;;12.90;;
37895;SDS011;23733;53.254;10.430;2022-12-18T02:56:25;29.70;;;14.40;;
37895;SDS011;23733;53.254;10.430;2022-12-18T02:58:58;24.37;;;12.40;;
37895;SDS011;23733;53.254;10.430;2022-12-18T03:01:42;27.73;;;13.53;;
37895;SDS011;23733;53.254;10.430;2022-12-18T03:04:17;25.50;;;13.80;;
37895;SDS011;23733;53.254;10.430;2022-12-18T03:06:48;27.73;;;12.80;;
37895;SDS011;23733;53.254;10.430;2022-12-18T03:09:19;29.98;;;16.17;;
37895;SDS011;23733;53.254;10.430;2022-12-18T03:11:49;29.33;;;13.27;;
37895;SDS011;23733;53.254;10.430;2022-12-18T03:14:37;25.27;;;13.47;;
37895;SDS011;23733;53.254;10.430;2022-12-18T03:17:05;25.67;;;13.87;;
37895;SDS011;23733;53.254;10.430;2022-12-18T03:19:33;25.60;;;13.33;;
37895;SDS011;23733;53.254;10.430;2022-12-18T03:22:00;28.30;;;13.70;;
37895;SDS011;23733;53.254;10.430;2022-12-18T03:24:27;25.50;;;13.47;;
37895;SDS011;23733;53.254;10.430;2022-12-18T03:26:57;23.37;;;12.63;;
37895;SDS011;23733;53.254;10.430;2022-12-18T03:29:25;25.83;;;13.63;;
37895;SDS011;23733;53.254;10.430;2022-12-18T03:31:54;23.63;;;12.43;;
37895;SDS011;23733;53.254;10.430;2022-12-18T03:34:22;29.37;;;13.40;;
37895;SDS011;23733;53.254;10.430;2022-12-18T03:36:49;29.83;;;13.53;;
37895;SDS011;23733;53.254;10.430;2022-12-18T03:39:15;22.83;;;12.23;;
37895;SDS011;23733;53.254;10.430;2022-12-18T03:41:52;25.00;;;12.70;;
37895;SDS011;23733;53.254;10.430;2022-12-18T03:47:25;25.53;;;12.93;;
37895;SDS011;23733;53.254;10.430;2022-12-18T03:49:57;24.60;;;13.07;;
37895;SDS011;23733;53.254;10.430;2022-12-18T03:54:51;24.67;;;13.73;;
37895;SDS011;23733;53.254;10.430;2022-12-18T03:57:19;26.30;;;12.67;;
37895;SDS011;23733;53.254;10.430;2022-12-18T03:59:47;25.03;;;12.80;;
37895;SDS011;23733;53.254;10.430;2022-12-18T04:02:16;26.03;;;13.70;;
37895;SDS011;23733;53.254;10.430;2022-12-18T04:04:43;26.47;;;13.40;;
37895;SDS011;23733;53.254;10.430;2022-12-18T04:07:10;24.70;;;12.87;;
37895;SDS011;23733;53.254;10.430;2022-12-18T04:09:38;24.83;;;12.23;;
37895;SDS011;23733;53.254;10.430;2022-12-18T04:12:05;24.20;;;13.70;;
37895;SDS011;23733;53.254;10.430;2022-12-18T04:14:31;26.60;;;13.20;;
37895;SDS011;23733;53.254;10.430;2022-12-18T04:17:01;27.97;;;13.30;;
37895;SDS011;23733;53.254;10.430;2022-12-18T04:19:28;29.73;;;14.63;;
37895;SDS011;23733;53.254;10.430;2022-12-18T04:21:54;27.90;;;14.60;;
37895;SDS011;23733;53.254;10.430;2022-12-18T04:24:20;28.60;;;14.07;;
37895;SDS011;23733;53.254;10.430;2022-12-18T04:26:47;28.37;;;14.03;;
37895;SDS011;23733;53.254;10.430;2022-12-18T04:29:13;24.37;;;13.33;;
37895;SDS011;23733;53.254;10.430;2022-12-18T04:31:39;26.43;;;14.33;;
37895;SDS011;23733;53.254;10.430;2022-12-18T04:34:05;32.27;;;14.77;;
37895;SDS011;23733;53.254;10.430;2022-12-18T04:36:32;29.47;;;13.90;;
37895;SDS011;23733;53.254;10.430;2022-12-18T04:38:58;34.30;;;15.00;;
37895;SDS011;23733;53.254;10.430;2022-12-18T04:41:24;26.13;;;13.87;;
37895;SDS011;23733;53.254;10.430;2022-12-18T04:43:51;26.33;;;14.13;;
37895;SDS011;23733;53.254;10.430;2022-12-18T04:46:17;27.67;;;13.87;;
37895;SDS011;23733;53.254;10.430;2022-12-18T04:48:45;23.67;;;12.83;;
37895;SDS011;23733;53.254;10.430;2022-12-18T04:51:11;27.63;;;13.70;;
37895;SDS011;23733;53.254;10.430;2022-12-18T04:53:37;31.80;;;13.47;;
37895;SDS011;23733;53.254;10.430;2022-12-18T04:56:11;29.90;;;14.43;;
37895;SDS011;23733;53.254;10.430;2022-12-18T04:58:38;26.00;;;14.40;;
37895;SDS011;23733;53.254;10.430;2022-12-18T05:01:05;28.33;;;14.30;;
37895;SDS011;23733;53.254;10.430;2022-12-18T05:03:33;26.63;;;12.87;;
37895;SDS011;23733;53.254;10.430;2022-12-18T05:05:59;30.17;;;14.00;;
37895;SDS011;23733;53.254;10.430;2022-12-18T05:08:26;25.97;;;12.90;;
37895;SDS011;23733;53.254;10.430;2022-12-18T05:11:02;26.47;;;13.90;;
37895;SDS011;23733;53.254;10.430;2022-12-18T05:13:29;24.33;;;12.70;;
37895;SDS011;23733;53.254;10.430;2022-12-18T05:15:56;27.90;;;12.97;;
37895;SDS011;23733;53.254;10.430;2022-12-18T05:18:22;25.07;;;13.00;;
37895;SDS011;23733;53.254;10.430;2022-12-18T05:20:49;27.63;;;12.97;;
37895;SDS011;23733;53.254;10.430;2022-12-18T05:23:16;27.53;;;14.00;;
37895;SDS011;23733;53.254;10.430;2022-12-18T05:25:42;31.07;;;13.67;;
37895;SDS011;23733;53.254;10.430;2022-12-18T05:28:08;25.77;;;13.37;;
37895;SDS011;23733;53.254;10.430;2022-12-18T05:30:35;26.87;;;13.37;;
37895;SDS011;23733;53.254;10.430;2022-12-18T05:33:01;28.80;;;13.80;;
37895;SDS011;23733;53.254;10.430;2022-12-18T05:35:27;28.40;;;13.30;;
37895;SDS011;23733;53.254;10.430;2022-12-18T05:37:54;28.23;;;13.70;;
37895;SDS011;23733;53.254;10.430;2022-12-18T05:40:20;26.43;;;13.17;;
37895;SDS011;23733;53.254;10.430;2022-12-18T05:42:46;22.83;;;12.03;;
37895;SDS011;23733;53.254;10.430;2022-12-18T05:45:12;25.23;;;12.93;;
37895;SDS011;23733;53.254;10.430;2022-12-18T05:47:39;32.60;;;13.00;;
37895;SDS011;23733;53.254;10.430;2022-12-18T05:50:05;25.43;;;13.13;;
37895;SDS011;23733;53.254;10.430;2022-12-18T05:52:32;27.80;;;12.67;;
37895;SDS011;23733;53.254;10.430;2022-12-18T05:54:58;27.33;;;13.07;;
37895;SDS011;23733;53.254;10.430;2022-12-18T05:57:24;27.50;;;14.07;;
37895;SDS011;23733;53.254;10.430;2022-12-18T05:59:51;28.50;;;13.30;;
37895;SDS011;23733;53.254;10.430;2022-12-18T06:02:17;25.37;;;13.73;;
37895;SDS011;23733;53.254;10.430;2022-12-18T06:04:46;30.47;;;15.10;;
37895;SDS011;23733;53.254;10.430;2022-12-18T06:07:12;29.03;;;14.17;;
37895;SDS011;23733;53.254;10.430;2022-12-18T06:09:38;27.50;;;13.03;;
37895;SDS011;23733;53.254;10.430;2022-12-18T06:12:05;32.03;;;13.80;;
37895;SDS011;23733;53.254;10.430;2022-12-18T06:14:31;28.23;;;14.43;;
37895;SDS011;23733;53.254;10.430;2022-12-18T06:16:57;28.13;;;12.90;;
37895;SDS011;23733;53.254;10.430;2022-12-18T06:19:24;30.73;;;14.33;;
37895;SDS011;23733;53.254;10.430;2022-12-18T06:21:50;26.77;;;14.17;;
37895;SDS011;23733;53.254;10.430;2022-12-18T06:24:16;30.50;;;14.50;;
37895;SDS011;23733;53.254;10.430;2022-12-18T06:26:43;28.53;;;13.07;;
37895;SDS011;23733;53.254;10.430;2022-12-18T06:29:09;26.53;;;13.07;;
37895;SDS011;23733;53.254;10.430;2022-12-18T06:31:35;29.43;;;14.10;;
37895;SDS011;23733;53.254;10.430;2022-12-18T06:34:03;27.00;;;12.53;;
37895;SDS011;23733;53.254;10.430;2022-12-18T06:36:29;29.10;;;14.10;;
37895;SDS011;23733;53.254;10.430;2022-12-18T06:38:56;25.80;;;13.20;;
37895;SDS011;23733;53.254;10.430;2022-12-18T06:41:22;31.83;;;14.10;;
37895;SDS011;23733;53.254;10.430;2022-12-18T06:43:49;32.47;;;13.93;;
37895;SDS011;23733;53.254;10.430;2022-12-18T06:46:15;30.57;;;15.03;;
37895;SDS011;23733;53.254;10.430;2022-12-18T06:48:41;27.50;;;14.07;;
37895;SDS011;23733;53.254;10.430;2022-12-18T06:51:07;29.60;;;14.63;;
37895;SDS011;23733;53.254;10.430;2022-12-18T06:53:34;28.47;;;13.63;;
37895;SDS011;23733;53.254;10.430;2022-12-18T06:56:04;26.83;;;14.20;;
37895;SDS011;23733;53.254;10.430;2022-12-18T06:58:31;32.57;;;14.67;;
37895;SDS011;23733;53.254;10.430;2022-12-18T07:01:01;27.70;;;14.37;;
37895;SDS011;23733;53.254;10.430;2022-12-18T07:03:27;28.40;;;14.47;;
37895;SDS011;23733;53.254;10.430;2022-12-18T07:05:54;27.97;;;13.17;;
37895;SDS011;23733;53.254;10.430;2022-12-18T07:08:20;25.53;;;13.13;;
37895;SDS011;23733;53.254;10.430;2022-12-18T07:10:46;25.73;;;13.07;;
37895;SDS011;23733;53.254;10.430;2022-12-18T07:13:14;25.37;;;12.37;;
37895;SDS011;23733;53.254;10.430;2022-12-18T07:15:41;24.50;;;12.87;;
37895;SDS011;23733;53.254;10.430;2022-12-18T07:18:07;28.10;;;13.90;;
37895;SDS011;23733;53.254;10.430;2022-12-18T07:20:33;28.20;;;14.03;;
37895;SDS011;23733;53.254;10.430;2022-12-18T07:23:02;26.70;;;13.27;;
37895;SDS011;23733;53.254;10.430;2022-12-18T07:25:29;29.43;;;14.30;;
37895;SDS011;23733;53.254;10.430;2022-12-18T07:27:55;23.57;;;12.90;;
37895;SDS011;23733;53.254;10.430;2022-12-18T07:30:21;29.93;;;14.50;;
37895;SDS011;23733;53.254;10.430;2022-12-18T07:32:47;29.90;;;13.70;;
37895;SDS011;23733;53.254;10.430;2022-12-18T07:35:14;28.30;;;14.57;;
37895;SDS011;23733;53.254;10.430;2022-12-18T07:37:40;32.92;;;14.05;;
37895;SDS011;23733;53.254;10.430;2022-12-18T07:40:07;31.00;;;14.07;;
37895;SDS011;23733;53.254;10.430;2022-12-18T07:42:34;31.73;;;14.30;;
37895;SDS011;23733;53.254;10.430;2022-12-18T07:45:01;29.47;;;13.67;;
37895;SDS011;23733;53.254;10.430;2022-12-18T07:47:28;31.33;;;16.83;;
37895;SDS011;23733;53.254;10.430;2022-12-18T07:49:57;29.43;;;14.77;;
37895;SDS011;23733;53.254;10.430;2022-12-18T07:52:23;29.13;;;14.07;;
37895;SDS011;23733;53.254;10.430;2022-12-18T07:54:50;28.10;;;14.17;;
37895;SDS011;23733;53.254;10.430;2022-12-18T07:57:16;35.93;;;15.40;;
37895;SDS011;23733;53.254;10.430;2022-12-18T07:59:43;27.40;;;13.57;;
37895;SDS011;23733;53.254;10.430;2022-12-18T08:02:09;34.47;;;16.77;;
37895;SDS011;23733;53.254;10.430;2022-12-18T08:04:35;29.13;;;13.90;;
37895;SDS011;23733;53.254;10.430;2022-12-18T08:07:02;29.10;;;16.45;;
37895;SDS011;23733;53.254;10.430;2022-12-18T08:09:29;30.07;;;14.87;;
37895;SDS011;23733;53.254;10.430;2022-12-18T08:11:55;27.40;;;14.10;;
37895;SDS011;23733;53.254;10.430;2022-12-18T08:14:21;31.37;;;14.90;;
37895;SDS011;23733;53.254;10.430;2022-12-18T08:16:48;29.20;;;17.13;;
37895;SDS011;23733;53.254;10.430;2022-12-18T08:19:14;30.57;;;15.37;;
37895;SDS011;23733;53.254;10.430;2022-12-18T08:21:40;33.77;;;16.07;;
37895;SDS011;23733;53.254;10.430;2022-12-18T08:24:08;28.77;;;14.43;;
37895;SDS011;23733;53.254;10.430;2022-12-18T08:26:35;30.70;;;14.63;;
37895;SDS011;23733;53.254;10.430;2022-12-18T08:29:01;31.97;;;14.57;;
37895;SDS011;23733;53.254;10.430;2022-12-18T08:31:29;34.08;;;15.45;;
37895;SDS011;23733;53.254;10.430;2022-12-18T08:33:55;27.80;;;13.60;;
37895;SDS011;23733;53.254;10.430;2022-12-18T08:36:22;31.13;;;14.17;;
37895;SDS011;23733;53.254;10.430;2022-12-18T08:38:49;30.10;;;13.43;;
37895;SDS011;23733;53.254;10.430;2022-12-18T08:41:16;31.23;;;15.30;;
37895;SDS011;23733;53.254;10.430;2022-12-18T08:43:42;29.40;;;13.87;;
37895;SDS011;23733;53.254;10.430;2022-12-18T08:46:31;32.90;;;14.20;;
37895;SDS011;23733;53.254;10.430;2022-12-18T08:48:58;29.17;;;13.80;;
37895;SDS011;23733;53.254;10.430;2022-12-18T08:51:24;31.55;;;15.60;;
37895;SDS011;23733;53.254;10.430;2022-12-18T08:53:50;30.10;;;14.50;;
37895;SDS011;23733;53.254;10.430;2022-12-18T08:56:17;34.50;;;14.20;;
37895;SDS011;23733;53.254;10.430;2022-12-18T08:58:43;30.90;;;13.70;;
37895;SDS011;23733;53.254;10.430;2022-12-18T09:01:10;27.90;;;13.87;;
37895;SDS011;23733;53.254;10.430;2022-12-18T09:03:37;33.30;;;14.87;;
37895;SDS011;23733;53.254;10.430;2022-12-18T09:06:04;34.33;;;15.23;;
37895;SDS011;23733;53.254;10.430;2022-12-18T09:08:30;31.20;;;14.10;;
37895;SDS011;23733;53.254;10.430;2022-12-18T09:11:00;34.87;;;14.03;;
37895;SDS011;23733;53.254;10.430;2022-12-18T09:13:26;30.53;;;14.70;;
37895;SDS011;23733;53.254;10.430;2022-12-18T09:15:53;31.83;;;14.20;;
37895;SDS011;23733;53.254;10.430;2022-12-18T09:18:22;32.07;;;14.30;;
37895;SDS011;23733;53.254;10.430;2022-12-18T09:20:48;27.17;;;13.57;;
37895;SDS011;23733;53.254;10.430;2022-12-18T09:23:17;30.53;;;15.03;;
37895;SDS011;23733;53.254;10.430;2022-12-18T09:25:43;27.93;;;13.27;;
37895;SDS011;23733;53.254;10.430;2022-12-18T09:28:11;32.33;;;15.27;;
37895;SDS011;23733;53.254;10.430;2022-12-18T09:30:41;34.50;;;15.40;;
37895;SDS011;23733;53.254;10.430;2022-12-18T09:33:08;28.73;;;14.33;;
37895;SDS011;23733;53.254;10.430;2022-12-18T09:35:37;32.03;;;15.70;;
37895;SDS011;23733;53.254;10.430;2022-12-18T09:38:04;28.83;;;14.30;;
37895;SDS011;23733;53.254;10.430;2022-12-18T09:40:35;30.50;;;15.13;;
37895;SDS011;23733;53.254;10.430;2022-12-18T09:43:03;34.60;;;15.13;;
37895;SDS011;23733;53.254;10.430;2022-12-18T09:45:31;28.23;;;13.97;;
37895;SDS011;23733;53.254;10.430;2022-12-18T09:48:01;28.60;;;13.97;;
37895;SDS011;23733;53.254;10.430;2022-12-18T09:50:35;28.77;;;14.07;;
37895;SDS011;23733;53.254;10.430;2022-12-18T09:53:05;31.53;;;14.57;;
37895;SDS011;23733;53.254;10.430;2022-12-18T09:55:42;29.40;;;14.93;;
37895;SDS011;23733;53.254;10.430;2022-12-18T10:00:35;27.83;;;13.90;;
37895;SDS011;23733;53.254;10.430;2022-12-18T10:03:12;29.43;;;13.73;;
37895;SDS011;23733;53.254;10.430;2022-12-18T10:08:06;27.47;;;12.50;;
37895;SDS011;23733;53.254;10.430;2022-12-18T10:10:41;29.07;;;14.37;;
37895;SDS011;23733;53.254;10.430;2022-12-18T10:15:52;26.43;;;13.00;;
37895;SDS011;23733;53.254;10.430;2022-12-18T10:18:23;26.23;;;13.03;;
37895;SDS011;23733;53.254;10.430;2022-12-18T10:20:52;34.20;;;14.97;;
37895;SDS011;23733;53.254;10.430;2022-12-18T10:25:50;26.60;;;12.77;;
37895;SDS011;23733;53.254;10.430;2022-12-18T10:28:17;33.23;;;14.83;;
37895;SDS011;23733;53.254;10.430;2022-12-18T10:30:44;25.03;;;12.77;;
37895;SDS011;23733;53.254;10.430;2022-12-18T10:33:12;28.60;;;14.13;;
37895;SDS011;23733;53.254;10.430;2022-12-18T10:35:42;33.77;;;14.80;;
37895;SDS011;23733;53.254;10.430;2022-12-18T10:40:52;29.07;;;13.33;;
37895;SDS011;23733;53.254;10.430;2022-12-18T10:43:24;35.70;;;14.70;;
37895;SDS011;23733;53.254;10.430;2022-12-18T10:48:25;32.37;;;14.23;;
37895;SDS011;23733;53.254;10.430;2022-12-18T10:50:52;29.67;;;13.63;;
37895;SDS011;23733;53.254;10.430;2022-12-18T10:53:20;28.40;;;13.80;;
37895;SDS011;23733;53.254;10.430;2022-12-18T10:55:47;33.87;;;15.17;;
37895;SDS011;23733;53.254;10.430;2022-12-18T10:58:27;29.83;;;14.50;;
37895;SDS011;23733;53.254;10.430;2022-12-18T11:01:16;30.20;;;14.23;;
37895;SDS011;23733;53.254;10.430;2022-12-18T11:03:44;34.30;;;14.67;;
37895;SDS011;23733;53.254;10.430;2022-12-18T11:06:15;32.33;;;14.53;;
37895;SDS011;23733;53.254;10.430;2022-12-18T11:08:42;29.53;;;13.73;;
37895;SDS011;23733;53.254;10.430;2022-12-18T11:11:21;31.60;;;14.30;;
37895;SDS011;23733;53.254;10.430;2022-12-18T11:14:12;33.53;;;13.67;;
37895;SDS011;23733;53.254;10.430;2022-12-18T11:16:45;30.93;;;13.53;;
37895;SDS011;23733;53.254;10.430;2022-12-18T11:19:14;30.10;;;13.03;;
37895;SDS011;23733;53.254;10.430;2022-12-18T11:21:41;26.97;;;12.27;;
37895;SDS011;23733;53.254;10.430;2022-12-18T11:24:15;28.20;;;12.43;;
37895;SDS011;23733;53.254;10.430;2022-12-18T11:26:45;27.47;;;12.70;;
37895;SDS011;23733;53.254;10.430;2022-12-18T11:29:16;28.03;;;12.80;;
37895;SDS011;23733;53.254;10.430;2022-12-18T11:31:42;27.43;;;12.83;;
37895;SDS011;23733;53.254;10.430;2022-12-18T11:36:36;28.93;;;12.27;;
37895;SDS011;23733;53.254;10.430;2022-12-18T11:39:08;31.47;;;13.57;;
37895;SDS011;23733;53.254;10.430;2022-12-18T11:41:42;27.93;;;13.03;;
37895;SDS011;23733;53.254;10.430;2022-12-18T11:44:29;31.70;;;13.70;;
37895;SDS011;23733;53.254;10.430;2022-12-18T11:47:03;27.33;;;12.23;;
37895;SDS011;23733;53.254;10.430;2022-12-18T11:49:34;27.80;;;12.10;;
37895;SDS011;23733;53.254;10.430;2022-12-18T11:54:27;26.80;;;12.77;;
37895;SDS011;23733;53.254;10.430;2022-12-18T11:56:55;26.07;;;11.97;;
37895;SDS011;23733;53.254;10.430;2022-12-18T11:59:26;30.13;;;12.70;;
37895;SDS011;23733;53.254;10.430;2022-12-18T12:01:59;29.73;;;13.50;;
37895;SDS011;23733;53.254;10.430;2022-12-18T12:04:33;33.27;;;13.93;;
37895;SDS011;23733;53.254;10.430;2022-12-18T12:09:42;28.53;;;12.90;;
37895;SDS011;23733;53.254;10.430;2022-12-18T12:15:03;29.57;;;13.07;;
37895;SDS011;23733;53.254;10.430;2022-12-18T12:17:55;28.47;;;12.60;;
37895;SDS011;23733;53.254;10.430;2022-12-18T12:20:27;30.10;;;14.00;;
37895;SDS011;23733;53.254;10.430;2022-12-18T12:22:59;25.80;;;11.37;;
37895;SDS011;23733;53.254;10.430;2022-12-18T12:30:36;27.83;;;12.70;;
37895;SDS011;23733;53.254;10.430;2022-12-18T12:33:13;29.57;;;12.53;;
37895;SDS011;23733;53.254;10.430;2022-12-18T12:35:45;31.37;;;13.03;;
37895;SDS011;23733;53.254;10.430;2022-12-18T12:38:15;29.23;;;13.17;;
37895;SDS011;23733;53.254;10.430;2022-12-18T12:40:46;29.37;;;11.90;;
37895;SDS011;23733;53.254;10.430;2022-12-18T12:46:00;34.23;;;14.10;;
37895;SDS011;23733;53.254;10.430;2022-12-18T12:51:02;32.50;;;13.10;;
37895;SDS011;23733;53.254;10.430;2022-12-18T12:53:31;32.63;;;14.07;;
37895;SDS011;23733;53.254;10.430;2022-12-18T12:55:59;34.00;;;14.77;;
37895;SDS011;23733;53.254;10.430;2022-12-18T12:58:30;31.47;;;14.27;;
37895;SDS011;23733;53.254;10.430;2022-12-18T13:03:41;33.53;;;14.83;;
37895;SDS011;23733;53.254;10.430;2022-12-18T13:06:22;33.07;;;14.47;;
37895;SDS011;23733;53.254;10.430;2022-12-18T13:08:56;32.73;;;14.17;;
37895;SDS011;23733;53.254;10.430;2022-12-18T13:14:21;34.27;;;15.07;;
37895;SDS011;23733;53.254;10.430;2022-12-18T13:16:47;36.70;;;14.50;;
37895;SDS011;23733;53.254;10.430;2022-12-18T13:19:21;32.00;;;14.00;;
37895;SDS011;23733;53.254;10.430;2022-12-18T13:21:52;34.77;;;16.00;;
37895;SDS011;23733;53.254;10.430;2022-12-18T13:24:26;32.60;;;14.57;;
37895;SDS011;23733;53.254;10.430;2022-12-18T13:26:54;34.90;;;15.60;;
37895;SDS011;23733;53.254;10.430;2022-12-18T13:29:40;35.03;;;15.27;;
37895;SDS011;23733;53.254;10.430;2022-12-18T13:32:18;38.07;;;15.63;;
37895;SDS011;23733;53.254;10.430;2022-12-18T13:34:45;31.23;;;14.10;;
37895;SDS011;23733;53.254;10.430;2022-12-18T13:39:57;41.13;;;17.23;;
37895;SDS011;23733;53.254;10.430;2022-12-18T13:45:43;36.03;;;15.47;;
37895;SDS011;23733;53.254;10.430;2022-12-18T13:48:00;33.73;;;15.47;;
37895;SDS011;23733;53.254;10.430;2022-12-18T13:50:27;35.50;;;14.87;;
37895;SDS011;23733;53.254;10.430;2022-12-18T13:52:53;37.70;;;17.43;;
37895;SDS011;23733;53.254;10.430;2022-12-18T13:55:20;36.40;;;16.80;;
37895;SDS011;23733;53.254;10.430;2022-12-18T13:57:47;39.15;;;18.55;;
37895;SDS011;23733;53.254;10.430;2022-12-18T14:02:44;33.13;;;14.43;;
37895;SDS011;23733;53.254;10.430;2022-12-18T14:05:33;36.23;;;16.57;;
37895;SDS011;23733;53.254;10.430;2022-12-18T14:08:03;38.07;;;16.07;;
37895;SDS011;23733;53.254;10.430;2022-12-18T14:10:30;38.97;;;15.47;;
37895;SDS011;23733;53.254;10.430;2022-12-18T14:12:57;36.87;;;14.70;;
37895;SDS011;23733;53.254;10.430;2022-12-18T14:17:52;37.85;;;18.45;;
37895;SDS011;23733;53.254;10.430;2022-12-18T14:20:19;37.17;;;16.80;;
37895;SDS011;23733;53.254;10.430;2022-12-18T14:22:46;39.40;;;16.63;;
37895;SDS011;23733;53.254;10.430;2022-12-18T14:27:46;37.30;;;18.40;;
37895;SDS011;23733;53.254;10.430;2022-12-18T14:30:32;35.70;;;16.10;;
37895;SDS011;23733;53.254;10.430;2022-12-18T14:35:39;37.90;;;15.60;;
37895;SDS011;23733;53.254;10.430;2022-12-18T14:38:25;36.07;;;15.13;;
37895;SDS011;23733;53.254;10.430;2022-12-18T14:40:53;33.63;;;14.23;;
37895;SDS011;23733;53.254;10.430;2022-12-18T14:43:20;39.83;;;19.55;;
37895;SDS011;23733;53.254;10.430;2022-12-18T14:45:46;34.00;;;15.97;;
37895;SDS011;23733;53.254;10.430;2022-12-18T14:48:20;35.87;;;15.00;;
37895;SDS011;23733;53.254;10.430;2022-12-18T14:50:54;32.27;;;16.60;;
37895;SDS011;23733;53.254;10.430;2022-12-18T14:53:23;32.77;;;14.17;;
37895;SDS011;23733;53.254;10.430;2022-12-18T14:55:50;34.37;;;13.97;;
37895;SDS011;23733;53.254;10.430;2022-12-18T14:58:17;35.42;;;15.75;;
37895;SDS011;23733;53.254;10.430;2022-12-18T15:00:43;35.40;;;14.70;;
37895;SDS011;23733;53.254;10.430;2022-12-18T15:03:10;33.50;;;14.63;;
37895;SDS011;23733;53.254;10.430;2022-12-18T15:05:36;28.13;;;12.83;;
37895;SDS011;23733;53.254;10.430;2022-12-18T15:08:02;27.47;;;12.37;;
37895;SDS011;23733;53.254;10.430;2022-12-18T15:10:30;29.10;;;12.90;;
37895;SDS011;23733;53.254;10.430;2022-12-18T15:20:27;31.90;;;14.40;;
37895;SDS011;23733;53.254;10.430;2022-12-18T15:22:53;29.60;;;13.13;;
37895;SDS011;23733;53.254;10.430;2022-12-18T15:25:41;33.00;;;16.63;;
37895;SDS011;23733;53.254;10.430;2022-12-18T15:28:17;33.63;;;14.90;;
37895;SDS011;23733;53.254;10.430;2022-12-18T15:30:58;26.20;;;13.00;;
37895;SDS011;23733;53.254;10.430;2022-12-18T15:33:26;29.63;;;13.63;;
37895;SDS011;23733;53.254;10.430;2022-12-18T15:35:57;33.53;;;14.10;;
37895;SDS011;23733;53.254;10.430;2022-12-18T15:38:23;29.63;;;13.67;;